Weather at Claresholm (General Hospital) Heliport

Public forecast

Using degrees Celsius for public forecast. Weather courtesy of forecast.io.

Closest aviation weather report (METAR) to Claresholm (General Hospital) Heliport

Closest report is Pincher Creek Airport, 33.9 nm (62.8 km) SSW.

2024/05/24 02:00 (retrieved 23 minutes ago)

CZPC 240200Z AUTO 18002KT 9SM BKN086 BKN110 BKN170 09/04 A2988 RMK SLP138 DENSITY ALT 4200FT

Closest aviation forecast (TAF) to Claresholm (General Hospital) Heliport

Closest forecast is Malmstrom Air Force Base, 178.2 nm (330.1 km) SSE.

2024/05/23 21:02 (retrieved 5 hours ago)

TAF KGFA 232100Z 2321/2503 VRB06KT 9999 SCT045 BKN060 510052 QNH2982INS BECMG 2415/2416 24010G20KT 9999 FEW035 SCT050 520052 QNH2979INS BECMG 2502/2503 VRB06KT 9999 FEW050 FEW070 SCT100 510032 QNH2968INS TX15/2421Z TN07/2412Z